Time;durP1;ratioP1;P1;durP2;ratioP2;P2;SDS_P1;SDS_P2;PMS_P1;PMS_P2;Temp;Humidity;BMP_temperature;BMP_pressure;BME280_temperature;BME280_humidity;BME280_pressure;Samples;Min_cycle;Max_cycle;Signal;HPM_P1;HPM_P2
2022/04/07 00:09:39;;;;;;;46.90;25.00;;;;;;;9.03;76.17;96891.89;432568;1272;108814;-42
2022/04/07 00:19:46;;;;;;;44.30;23.90;;;;;;;8.98;76.15;96885.28;432620;1271;98044;-41
2022/04/07 00:29:54;;;;;;;35.90;19.70;;;;;;;8.94;76.18;96883.95;432506;1271;111379;-43
2022/04/07 00:40:00;;;;;;;36.70;19.20;;;;;;;9.01;76.21;96878.54;432655;1271;108910;-42
2022/04/07 00:50:09;;;;;;;34.90;19.10;;;;;;;9.08;76.23;96865.41;432516;1271;97914;-43
2022/04/07 01:00:17;;;;;;;43.10;22.60;;;;;;;8.99;76.14;96854.44;432617;1271;108891;-41
2022/04/07 01:10:29;;;;;;;37.10;20.40;;;;;;;8.79;76.50;96850.98;432511;1272;98047;-42
2022/04/07 01:20:37;;;;;;;26.80;16.70;;;;;;;8.71;76.38;96848.39;433741;1261;111089;-42
2022/04/07 01:30:44;;;;;;;26.90;14.60;;;;;;;8.65;76.37;96842.89;432985;1270;108831;-45
2022/04/07 01:40:52;;;;;;;21.80;13.20;;;;;;;8.53;76.42;96843.66;432900;1270;97910;-42
2022/04/07 01:50:59;;;;;;;25.70;15.50;;;;;;;8.39;76.42;96846.73;433282;1270;109059;-42
2022/04/07 02:01:07;;;;;;;28.80;18.00;;;;;;;8.17;76.46;96850.45;433163;1269;96617;-42
2022/04/07 02:11:14;;;;;;;31.10;19.60;;;;;;;7.91;76.61;96848.02;433245;1271;110916;-44
2022/04/07 02:21:21;;;;;;;24.40;17.20;;;;;;;7.66;76.60;96841.21;433248;1271;108864;-41
2022/04/07 02:31:28;;;;;;;26.70;17.80;;;;;;;7.46;76.83;96835.40;433270;1271;97502;-41
2022/04/07 02:41:35;;;;;;;21.20;14.40;;;;;;;7.29;76.96;96831.44;433288;1269;108747;-45
2022/04/07 02:51:42;;;;;;;26.20;15.60;;;;;;;7.23;77.08;96828.30;433042;1271;97934;-41
2022/04/07 03:11:58;;;;;;;23.70;16.00;;;;;;;6.94;77.34;96810.84;433328;1271;108768;-42
2022/04/07 03:22:06;;;;;;;33.20;21.80;;;;;;;6.79;77.62;96803.14;433447;1270;96664;-42
2022/04/07 03:32:13;;;;;;;32.50;21.20;;;;;;;6.69;77.86;96798.91;432973;1271;108809;-43
2022/04/07 03:42:20;;;;;;;24.90;14.90;;;;;;;6.63;77.88;96794.33;433004;1270;97513;-40
2022/04/07 03:52:27;;;;;;;24.80;14.80;;;;;;;6.63;77.95;96792.08;433349;1269;110935;-42
2022/04/07 04:02:35;;;;;;;23.60;14.40;;;;;;;6.62;77.95;96790.33;433131;1270;108903;-44
2022/04/07 04:12:42;;;;;;;58.20;33.70;;;;;;;6.58;78.17;96785.50;433041;1271;97942;-41
2022/04/07 04:22:50;;;;;;;46.30;28.50;;;;;;;6.60;78.19;96784.47;433430;1270;108688;-41
2022/04/07 04:32:57;;;;;;;43.70;25.60;;;;;;;6.54;78.11;96780.33;433258;1271;97923;-41
2022/04/07 04:43:04;;;;;;;54.10;29.10;;;;;;;6.53;78.33;96779.84;433576;1271;111081;-44
2022/04/07 04:53:11;;;;;;;33.60;19.80;;;;;;;6.64;78.37;96783.99;433047;1270;108781;-42
2022/04/07 05:03:17;;;;;;;36.50;20.80;;;;;;;7.10;78.74;96789.13;433105;1271;97906;-42
2022/04/07 05:13:25;;;;;;;41.30;23.30;;;;;;;8.36;78.75;96789.48;432947;1269;110938;-43
2022/04/07 05:23:32;;;;;;;26.50;17.60;;;;;;;9.80;78.53;96780.97;432704;1271;108914;-42
2022/04/07 05:33:40;;;;;;;43.90;21.20;;;;;;;11.02;77.37;96769.73;432792;1271;97252;-42
2022/04/07 05:43:46;;;;;;;22.80;14.50;;;;;;;11.80;76.48;96773.11;432572;1271;110947;-44
2022/04/07 06:03:59;;;;;;;13.20;9.70;;;;;;;13.77;74.89;96772.63;432637;1270;97906;-41
2022/04/07 06:14:06;;;;;;;12.60;8.00;;;;;;;14.74;72.17;96761.61;432947;1270;111134;-44
2022/04/07 06:24:14;;;;;;;12.90;8.60;;;;;;;15.52;70.58;96748.96;432775;1271;109041;-41
2022/04/07 06:44:28;;;;;;;11.30;6.00;;;;;;;16.44;67.56;96745.24;432869;1271;111101;-45
2022/04/07 06:54:35;;;;;;;7.20;4.00;;;;;;;16.90;63.96;96735.95;432712;1271;108927;-41
2022/04/07 07:04:42;;;;;;;4.80;3.70;;;;;;;16.64;61.46;96739.40;432878;1269;97990;-41
2022/04/07 07:14:50;;;;;;;5.60;2.80;;;;;;;16.20;60.93;96739.05;432598;1270;111090;-45
2022/04/07 07:24:57;;;;;;;5.20;2.80;;;;;;;15.33;59.49;96739.10;433090;1269;108827;-42
2022/04/07 07:35:05;;;;;;;5.80;3.60;;;;;;;14.80;59.64;96738.44;433177;1271;96680;-40
2022/04/07 07:45:12;;;;;;;2.80;2.60;;;;;;;14.88;60.50;96730.10;433204;1269;110956;-40
2022/04/07 07:55:40;;;;;;;4.90;2.00;;;;;;;14.93;58.77;96724.06;432656;1270;108750;-40
2022/04/07 08:05:47;;;;;;;5.40;2.40;;;;;;;15.04;57.40;96706.07;432767;1270;97936;-45
2022/04/07 08:15:54;;;;;;;3.80;2.20;;;;;;;15.70;57.96;96700.23;432779;1270;108915;-44
2022/04/07 08:26:02;;;;;;;4.40;1.30;;;;;;;16.16;56.23;96699.66;433104;1270;97963;-40
2022/04/07 08:36:09;;;;;;;4.20;2.10;;;;;;;16.44;55.24;96695.13;433105;1271;111100;-45
2022/04/07 08:46:16;;;;;;;2.50;2.10;;;;;;;16.61;55.09;96688.16;433204;1271;108816;-44
2022/04/07 09:06:33;;;;;;;3.10;2.00;;;;;;;16.87;53.85;96656.48;433122;1270;110940;-43
2022/04/07 09:16:41;;;;;;;2.00;1.30;;;;;;;16.61;53.87;96652.50;432361;1271;339273;-42
2022/04/07 09:26:49;;;;;;;1.50;1.30;;;;;;;16.48;53.46;96639.26;432764;1270;96825;-43
2022/04/07 09:37:03;;;;;;;3.20;0.70;;;;;;;16.73;53.28;96612.42;433174;1270;111470;-46
2022/04/07 10:07:28;;;;;;;3.20;1.30;;;;;;;16.73;51.51;96579.44;433323;1269;111147;-41
2022/04/07 10:17:36;;;;;;;5.60;1.80;;;;;;;16.95;51.96;96566.14;433146;1269;107834;-41
2022/04/07 10:37:51;;;;;;;20.60;2.40;;;;;;;16.81;50.57;96551.21;433199;1269;111052;-42
2022/04/07 10:48:16;;;;;;;4.00;2.10;;;;;;;16.48;50.85;96526.55;432935;1271;108806;-42
2022/04/07 10:58:24;;;;;;;27.00;3.40;;;;;;;16.35;51.15;96529.89;432552;1271;97713;-41
2022/04/07 11:18:41;;;;;;;7.50;1.60;;;;;;;16.45;50.76;96502.78;433175;1269;97948;-46
2022/04/07 11:29:07;;;;;;;4.80;1.60;;;;;;;16.53;49.61;96500.46;432527;1270;111114;-42
2022/04/07 11:39:13;;;;;;;2.80;1.70;;;;;;;16.53;49.67;96504.95;432506;1270;109871;-42
2022/04/07 11:49:23;;;;;;;1.90;1.40;;;;;;;16.37;50.32;96489.66;432441;1271;97079;-42
2022/04/07 11:59:36;;;;;;;1.60;1.40;;;;;;;16.38;50.45;96466.33;432671;1268;111086;-41
2022/04/07 12:09:44;;;;;;;2.50;1.10;;;;;;;16.39;49.44;96440.95;432623;1270;109255;-42
2022/04/07 12:19:52;;;;;;;2.50;1.10;;;;;;;16.73;48.98;96417.78;432517;1271;97540;-45
2022/04/07 12:30:00;;;;;;;5.00;1.50;;;;;;;16.88;49.14;96387.96;432734;1270;111049;-41
2022/04/07 12:40:30;;;;;;;5.00;1.90;;;;;;;17.07;49.07;96365.25;432645;1271;109684;-42
2022/04/07 12:50:38;;;;;;;3.20;1.90;;;;;;;16.79;49.43;96338.02;432618;1271;97916;-43
2022/04/07 13:00:58;;;;;;;2.30;1.70;;;;;;;16.86;49.82;96314.76;432475;1271;111309;-42
2022/04/07 13:11:06;;;;;;;4.40;2.40;;;;;;;16.77;49.14;96287.73;432615;1271;107862;-44
2022/04/07 13:21:12;;;;;;;7.10;3.10;;;;;;;16.75;49.22;96257.69;432492;1271;97901;-42
2022/04/07 13:31:22;;;;;;;3.90;2.80;;;;;;;16.54;48.87;96236.16;432578;1271;111173;-43
2022/04/07 13:41:30;;;;;;;8.00;3.00;;;;;;;16.68;49.31;96215.86;432709;1271;108784;-42
2022/04/07 13:51:38;;;;;;;5.40;2.80;;;;;;;16.80;48.99;96194.19;432535;1271;97935;-42
2022/04/07 14:01:45;;;;;;;2.90;2.30;;;;;;;16.68;48.33;96179.04;432657;1271;111166;-43
2022/04/07 14:11:53;;;;;;;1.80;1.50;;;;;;;16.71;47.79;96155.98;432502;1270;108825;-43
2022/04/07 14:22:00;;;;;;;3.80;1.90;;;;;;;16.66;46.84;96140.39;432492;1271;97899;-42
2022/04/07 14:32:06;;;;;;;3.70;2.10;;;;;;;16.40;47.57;96124.23;432662;1271;110946;-42
2022/04/07 14:42:13;;;;;;;4.10;1.50;;;;;;;16.48;47.51;96110.02;432661;1270;97910;-41
2022/04/07 15:02:26;;;;;;;5.40;2.60;;;;;;;16.76;46.00;96110.96;432563;1271;97947;-41
2022/04/07 15:12:34;;;;;;;5.40;3.10;;;;;;;16.67;45.81;96088.77;432565;1271;111481;-41
2022/04/07 15:22:42;;;;;;;4.30;2.30;;;;;;;16.40;46.21;96079.52;432564;1271;108803;-43
2022/04/07 15:42:55;;;;;;;6.50;2.80;;;;;;;15.94;47.92;96042.55;432419;1271;111116;-41
2022/04/07 15:53:02;;;;;;;6.80;3.00;;;;;;;15.77;48.43;96034.19;432316;1270;108104;-42
2022/04/07 16:03:11;;;;;;;6.80;3.30;;;;;;;15.65;48.95;96015.70;432402;1271;97909;-41
2022/04/07 16:13:19;;;;;;;6.80;3.30;;;;;;;15.42;48.97;96004.71;432395;1270;111147;-40
2022/04/07 16:23:26;;;;;;;4.80;2.70;;;;;;;15.22;48.89;95995.71;432681;1273;108959;-44
2022/04/07 16:33:33;;;;;;;3.60;2.40;;;;;;;15.09;49.08;95985.08;432515;1270;97926;-42
2022/04/07 16:43:42;;;;;;;6.20;2.60;;;;;;;14.93;49.26;95974.59;432598;1273;111698;-41
2022/04/07 16:53:51;;;;;;;4.40;2.90;;;;;;;14.79;49.42;95975.23;432647;1270;109694;-42
2022/04/07 17:03:59;;;;;;;5.50;3.40;;;;;;;14.69;49.37;95977.00;432669;1272;98419;-46
2022/04/07 17:14:06;;;;;;;9.20;4.30;;;;;;;14.58;49.46;95969.88;432752;1270;110136;-42
2022/04/07 17:24:14;;;;;;;4.20;2.90;;;;;;;14.49;49.41;95964.36;432471;1272;108881;-49
2022/04/07 17:34:21;;;;;;;8.30;2.90;;;;;;;14.36;49.82;95964.55;432330;1270;108860;-42
2022/04/07 17:44:29;;;;;;;7.80;3.10;;;;;;;14.19;49.96;95961.73;432579;1272;98057;-41
2022/04/07 17:54:36;;;;;;;4.10;2.90;;;;;;;14.08;50.10;95959.95;432535;1269;110063;-43
2022/04/07 18:14:50;;;;;;;6.90;2.20;;;;;;;13.98;49.50;95949.34;432511;1270;97911;-43
2022/04/07 18:24:57;;;;;;;6.00;3.90;;;;;;;13.94;48.97;95941.48;432533;1271;109833;-41
2022/04/07 18:35:08;;;;;;;5.30;2.40;;;;;;;13.89;49.00;95940.43;432562;1271;108976;-41
2022/04/07 19:05:29;;;;;;;4.50;2.20;;;;;;;13.46;50.50;95893.83;432666;1271;107730;-43
2022/04/07 19:15:37;;;;;;;5.10;3.00;;;;;;;13.39;50.51;95869.70;432768;1271;96724;-42
2022/04/07 19:25:44;;;;;;;4.80;2.20;;;;;;;13.32;50.70;95865.31;432752;1270;111041;-43
2022/04/07 19:35:51;;;;;;;5.10;2.70;;;;;;;13.30;50.73;95857.48;432430;1270;107858;-43
2022/04/07 19:46:00;;;;;;;6.00;3.20;;;;;;;13.37;50.79;95859.05;432516;1270;97933;-43
2022/04/07 19:56:08;;;;;;;6.70;3.10;;;;;;;13.34;51.38;95864.46;432551;1271;97904;-41
2022/04/07 20:06:15;;;;;;;8.90;5.20;;;;;;;13.19;52.18;95849.03;432570;1273;111098;-40
2022/04/07 20:16:23;;;;;;;7.00;3.40;;;;;;;13.15;52.73;95828.40;432559;1271;108675;-41
2022/04/07 20:26:32;;;;;;;4.20;2.50;;;;;;;13.09;53.24;95808.81;432647;1270;98000;-41
2022/04/07 20:36:39;;;;;;;4.60;2.10;;;;;;;13.02;53.65;95800.92;432457;1272;111144;-41
2022/04/07 20:46:46;;;;;;;3.10;1.60;;;;;;;13.07;53.51;95812.50;432520;1270;108613;-44
2022/04/07 20:56:54;;;;;;;4.40;1.50;;;;;;;12.86;55.62;95939.27;432472;1271;97920;-43
2022/04/07 21:07:01;;;;;;;3.60;0.70;;;;;;;10.71;62.69;96016.97;432338;1270;111182;-41
2022/04/07 21:17:09;;;;;;;2.10;0.90;;;;;;;9.60;68.06;96023.05;432233;1271;389458;-42
2022/04/07 21:27:16;;;;;;;1.90;0.50;;;;;;;8.97;69.94;96024.80;432465;1270;97916;-41
2022/04/07 21:37:23;;;;;;;4.00;1.50;;;;;;;8.66;70.43;96019.58;432649;1271;110330;-42
2022/04/07 21:47:30;;;;;;;6.40;4.40;;;;;;;8.46;70.48;96044.95;432480;1271;98604;-41
2022/04/07 21:57:38;;;;;;;5.30;3.10;;;;;;;8.30;70.75;96078.58;432548;1271;111180;-43
2022/04/07 22:07:45;;;;;;;1.80;0.90;;;;;;;8.27;70.69;96084.38;432444;1271;107617;-43
2022/04/07 22:17:57;;;;;;;1.10;0.40;;;;;;;8.21;72.84;96089.96;432363;1270;97506;-45
2022/04/07 22:28:04;;;;;;;2.20;0.70;;;;;;;8.17;73.61;96081.31;432437;1271;108812;-41
2022/04/07 22:38:10;;;;;;;1.20;0.60;;;;;;;8.19;73.17;96033.34;432541;1269;97899;-41
2022/04/07 22:48:18;;;;;;;1.40;0.90;;;;;;;8.25;73.11;96050.96;432450;1271;111469;-42
2022/04/07 22:58:26;;;;;;;2.50;0.80;;;;;;;8.29;72.72;96039.73;432409;1271;108212;-42
2022/04/07 23:08:39;;;;;;;0.90;0.60;;;;;;;8.29;72.51;96057.84;432651;1271;97936;-42
2022/04/07 23:18:46;;;;;;;2.30;0.70;;;;;;;8.27;72.59;96061.01;432449;1271;108557;-44
2022/04/07 23:28:53;;;;;;;0.60;0.60;;;;;;;8.19;72.65;96047.23;432295;1272;97502;-41
2022/04/07 23:39:00;;;;;;;2.40;0.60;;;;;;;8.14;72.70;96053.48;432592;1270;110675;-41
2022/04/07 23:49:09;;;;;;;1.10;1.00;;;;;;;7.92;73.42;96061.61;432335;1271;108676;-43
2022/04/07 23:59:16;;;;;;;1.70;0.70;;;;;;;7.82;73.73;96088.54;432590;1271;97980;-41
